createdAt,value
2018-07-02T00:02:26.449Z,19.15
2018-07-02T00:05:01.854Z,19.02
2018-07-02T00:07:35.900Z,18.98
2018-07-02T00:10:11.461Z,18.90
2018-07-02T00:12:45.382Z,18.88
2018-07-02T00:15:19.446Z,19.09
2018-07-02T00:17:53.324Z,19.23
2018-07-02T00:20:25.893Z,19.25
2018-07-02T00:23:01.269Z,19.17
2018-07-02T00:25:33.933Z,18.87
2018-07-02T00:28:08.732Z,18.65
2018-07-02T00:30:45.939Z,18.64
2018-07-02T00:33:19.114Z,18.64
2018-07-02T00:35:51.836Z,18.47
2018-07-02T00:38:27.605Z,18.47
2018-07-02T00:41:00.668Z,18.40
2018-07-02T00:43:34.737Z,18.21
2018-07-02T00:46:08.974Z,18.06
2018-07-02T00:48:45.913Z,18.11
2018-07-02T00:51:20.835Z,18.10
2018-07-02T00:53:55.430Z,17.84
2018-07-02T00:56:29.137Z,17.60
2018-07-02T00:59:03.158Z,17.43
2018-07-02T01:01:37.569Z,17.37
2018-07-02T01:04:11.849Z,17.36
2018-07-02T01:06:46.201Z,17.20
2018-07-02T01:09:20.136Z,17.09
2018-07-02T01:11:54.562Z,17.09
2018-07-02T01:14:28.581Z,17.16
2018-07-02T01:17:02.935Z,17.13
2018-07-02T01:19:35.544Z,17.05
2018-07-02T01:22:09.164Z,16.97
2018-07-02T01:24:42.510Z,16.81
2018-07-02T01:27:20.342Z,16.73
2018-07-02T01:29:54.415Z,16.53
2018-07-02T01:32:29.571Z,16.44
2018-07-02T01:35:03.962Z,16.40
2018-07-02T01:37:36.930Z,16.28
2018-07-02T01:40:11.636Z,16.26
2018-07-02T01:42:44.307Z,16.41
2018-07-02T01:45:16.382Z,16.44
2018-07-02T01:47:49.262Z,16.54
2018-07-02T01:50:21.665Z,16.55
2018-07-02T01:52:54.273Z,16.52
2018-07-02T01:55:28.450Z,16.44
2018-07-02T01:58:04.322Z,16.57
2018-07-02T02:00:36.822Z,16.52
2018-07-02T02:03:12.138Z,16.24
2018-07-02T02:05:46.201Z,15.99
2018-07-02T02:08:18.705Z,15.84
2018-07-02T02:10:56.074Z,15.62
2018-07-02T02:13:28.601Z,15.48
2018-07-02T02:16:02.191Z,15.48
2018-07-02T02:18:36.629Z,15.45
2018-07-02T02:21:11.809Z,15.38
2018-07-02T02:23:45.477Z,15.34
2018-07-02T02:26:19.875Z,15.38
2018-07-02T02:28:53.639Z,15.33
2018-07-02T02:31:27.813Z,15.21
2018-07-02T02:34:05.525Z,15.02
2018-07-02T02:36:39.017Z,14.79
2018-07-02T02:39:12.586Z,14.94
2018-07-02T02:41:51.086Z,15.10
2018-07-02T02:44:24.299Z,15.13
2018-07-02T02:46:57.677Z,15.15
2018-07-02T02:49:33.062Z,15.05
2018-07-02T02:52:07.018Z,14.98
2018-07-02T02:54:39.662Z,14.95
2018-07-02T02:57:13.593Z,14.82
2018-07-02T02:59:46.750Z,14.68
2018-07-02T03:02:19.238Z,14.60
2018-07-02T03:04:52.010Z,14.77
2018-07-02T03:07:24.590Z,14.75
2018-07-02T03:09:57.639Z,14.53
2018-07-02T03:12:30.796Z,14.43
2018-07-02T03:15:06.209Z,14.09
2018-07-02T03:17:39.906Z,14.13
2018-07-02T03:20:15.902Z,13.90
2018-07-02T03:22:48.362Z,13.80
2018-07-02T03:25:24.665Z,14.00
2018-07-02T03:27:58.836Z,14.17
2018-07-02T03:30:31.377Z,14.19
2018-07-02T03:33:04.894Z,14.10
2018-07-02T03:35:37.418Z,14.19
2018-07-02T03:38:10.194Z,14.11
2018-07-02T03:40:42.745Z,13.99
2018-07-02T03:43:15.253Z,14.01
2018-07-02T03:45:50.186Z,14.27
2018-07-02T03:48:22.846Z,14.47
2018-07-02T03:50:58.365Z,14.59
2018-07-02T03:53:31.318Z,14.58
2018-07-02T03:56:09.811Z,14.62
2018-07-02T03:58:45.197Z,14.53
2018-07-02T04:01:20.865Z,14.65
2018-07-02T04:04:02.360Z,14.59
2018-07-02T04:06:36.066Z,14.65
2018-07-02T04:09:13.514Z,14.67
2018-07-02T04:11:49.405Z,14.41
2018-07-02T04:14:22.905Z,14.28
2018-07-02T04:16:59.758Z,14.30
2018-07-02T04:19:33.389Z,14.05
2018-07-02T04:22:07.289Z,13.95
2018-07-02T04:24:42.743Z,13.98
2018-07-02T04:27:16.350Z,13.83
2018-07-02T04:29:49.861Z,13.74
2018-07-02T04:32:25.645Z,13.80
2018-07-02T04:35:01.038Z,13.67
2018-07-02T04:37:35.362Z,13.47
2018-07-02T04:40:09.174Z,13.29
2018-07-02T04:42:42.030Z,13.19
2018-07-02T04:45:15.984Z,13.17
2018-07-02T04:47:50.070Z,13.28
2018-07-02T04:50:24.116Z,13.40
2018-07-02T04:52:56.821Z,13.51
2018-07-02T04:55:29.760Z,13.61
2018-07-02T04:58:06.269Z,14.17
2018-07-02T05:00:42.253Z,14.57
2018-07-02T05:03:16.779Z,14.76
2018-07-02T05:05:50.656Z,14.64
2018-07-02T05:08:23.332Z,14.56
2018-07-02T05:10:56.010Z,14.60
2018-07-02T05:13:31.334Z,14.84
2018-07-02T05:16:04.237Z,14.97
2018-07-02T05:18:42.820Z,15.27
2018-07-02T05:21:16.400Z,15.39
2018-07-02T05:23:49.249Z,15.44
2018-07-02T05:26:21.944Z,15.46
2018-07-02T05:28:54.576Z,15.46
2018-07-02T05:31:26.979Z,15.53
2018-07-02T05:34:00.717Z,15.54
2018-07-02T05:36:33.252Z,15.63
2018-07-02T05:39:10.937Z,15.87
2018-07-02T05:41:44.342Z,16.17
2018-07-02T05:44:17.680Z,16.60
2018-07-02T05:46:50.118Z,17.12
2018-07-02T05:49:22.838Z,17.45
2018-07-02T05:51:56.146Z,17.69
2018-07-02T05:54:30.438Z,18.00
2018-07-02T05:57:04.891Z,18.23
2018-07-02T05:59:45.542Z,18.44
2018-07-02T06:02:18.569Z,18.50
2018-07-02T06:04:51.118Z,18.56
2018-07-02T06:07:24.426Z,18.73
2018-07-02T06:09:57.110Z,18.77
2018-07-02T06:12:30.498Z,18.89
2018-07-02T06:15:06.607Z,19.05
2018-07-02T06:17:40.277Z,19.06
2018-07-02T06:20:15.894Z,19.01
2018-07-02T06:22:51.585Z,19.20
2018-07-02T06:25:24.912Z,19.48
2018-07-02T06:27:59.938Z,19.63
2018-07-02T06:30:34.192Z,19.81
2018-07-02T06:33:12.613Z,19.89
2018-07-02T06:35:48.899Z,19.83
2018-07-02T06:38:23.068Z,19.91
2018-07-02T06:40:56.061Z,20.08
2018-07-02T06:43:29.497Z,20.12
2018-07-02T06:46:05.424Z,20.25
2018-07-02T06:48:39.713Z,20.40
2018-07-02T06:51:12.500Z,20.38
2018-07-02T06:53:46.986Z,20.49
2018-07-02T06:56:20.758Z,20.58
2018-07-02T06:58:55.327Z,20.73
2018-07-02T07:01:27.753Z,20.84
2018-07-02T07:04:03.052Z,20.88
2018-07-02T07:06:36.145Z,21.01
2018-07-02T07:09:10.477Z,21.04
2018-07-02T07:11:44.221Z,21.11
2018-07-02T07:14:16.937Z,21.13
2018-07-02T07:16:49.409Z,21.14
2018-07-02T07:19:22.949Z,21.25
2018-07-02T07:21:57.840Z,21.32
2018-07-02T07:24:30.897Z,21.41
2018-07-02T07:27:06.131Z,21.52
2018-07-02T07:32:01.612Z,21.72
2018-07-02T07:34:34.707Z,21.83
2018-07-02T07:37:08.489Z,22.03
2018-07-02T07:39:42.336Z,22.22
2018-07-02T07:42:16.447Z,22.32
2018-07-02T07:44:49.822Z,22.43
2018-07-02T07:47:27.758Z,22.60
2018-07-02T07:50:00.706Z,22.71
2018-07-02T07:52:35.318Z,22.91
2018-07-02T07:55:13.556Z,23.30
2018-07-02T07:57:48.369Z,23.89
2018-07-02T08:00:24.820Z,25.26
2018-07-02T08:03:00.010Z,26.59
2018-07-02T08:05:38.374Z,27.52
2018-07-02T08:08:12.825Z,28.33
2018-07-02T08:10:47.946Z,28.80
2018-07-02T08:13:24.827Z,28.71
2018-07-02T08:15:58.332Z,28.97
2018-07-02T08:18:32.601Z,29.38
2018-07-02T08:21:06.267Z,29.54
2018-07-02T08:23:40.145Z,29.42
2018-07-02T08:26:14.176Z,29.36
2018-07-02T08:28:49.448Z,28.93
2018-07-02T08:31:23.842Z,28.94
2018-07-02T08:33:56.705Z,29.05
2018-07-02T08:36:31.310Z,29.37
2018-07-02T08:39:09.497Z,30.01
2018-07-02T08:41:43.638Z,29.99
2018-07-02T08:44:22.321Z,30.11
2018-07-02T08:46:55.106Z,29.60
2018-07-02T08:49:29.260Z,28.97
2018-07-02T08:52:04.073Z,29.30
2018-07-02T08:54:37.266Z,29.52
2018-07-02T08:57:10.986Z,29.51
2018-07-02T08:59:45.261Z,29.22
2018-07-02T09:02:19.904Z,29.36
2018-07-02T09:04:53.619Z,29.06
2018-07-02T09:07:27.782Z,29.10
2018-07-02T09:10:01.812Z,29.14
2018-07-02T09:12:35.020Z,29.44
2018-07-02T09:15:10.389Z,29.36
2018-07-02T09:17:48.428Z,29.62
2018-07-02T09:20:23.863Z,29.76
2018-07-02T09:22:58.511Z,30.35
2018-07-02T09:25:34.947Z,30.49
2018-07-02T09:28:07.828Z,31.14
2018-07-02T09:30:47.795Z,31.11
2018-07-02T09:33:22.362Z,31.13
2018-07-02T09:35:55.461Z,31.22
2018-07-02T09:38:32.671Z,31.22
2018-07-02T09:41:06.294Z,31.21
2018-07-02T09:43:40.807Z,31.50
2018-07-02T09:46:15.843Z,31.01
2018-07-02T09:48:52.683Z,30.90
2018-07-02T09:51:28.961Z,31.08
2018-07-02T09:54:02.330Z,31.37
2018-07-02T09:56:38.442Z,31.52
2018-07-02T09:59:11.785Z,31.31
2018-07-02T10:01:50.337Z,31.51
2018-07-02T10:04:23.855Z,31.46
2018-07-02T10:07:03.043Z,31.73
2018-07-02T10:09:38.263Z,31.46
2018-07-02T10:12:12.972Z,31.22
2018-07-02T10:14:46.510Z,31.51
2018-07-02T10:17:19.769Z,31.54
2018-07-02T10:20:01.697Z,32.15
2018-07-02T10:22:38.076Z,31.70
2018-07-02T10:25:13.481Z,31.60
2018-07-02T10:27:47.896Z,31.27
2018-07-02T10:30:21.602Z,31.37
2018-07-02T10:33:07.656Z,31.67
2018-07-02T10:35:43.332Z,31.77
2018-07-02T10:38:16.361Z,31.71
2018-07-02T10:40:50.116Z,31.55
2018-07-02T10:43:23.020Z,31.64
2018-07-02T10:45:58.972Z,31.62
2018-07-02T10:48:35.664Z,31.00
2018-07-02T10:51:16.414Z,30.37
2018-07-02T10:53:51.848Z,30.33
2018-07-02T10:56:26.662Z,31.16
2018-07-02T10:58:59.936Z,31.23
2018-07-02T11:01:34.499Z,31.28
2018-07-02T11:04:11.417Z,30.91
2018-07-02T11:06:45.121Z,30.46
2018-07-02T11:09:21.969Z,30.51
2018-07-02T11:11:55.221Z,30.84
2018-07-02T11:14:30.596Z,30.89
2018-07-02T11:17:06.015Z,30.68
2018-07-02T11:19:41.854Z,30.06
2018-07-02T11:22:16.186Z,29.87
2018-07-02T11:24:52.529Z,30.28
2018-07-02T11:27:25.091Z,31.19
2018-07-02T11:30:00.490Z,31.56
2018-07-02T11:32:38.875Z,31.69
2018-07-02T11:35:16.309Z,31.77
2018-07-02T11:37:49.324Z,31.85
2018-07-02T11:40:23.312Z,31.95
2018-07-02T11:42:58.839Z,31.81
2018-07-02T11:45:35.747Z,31.55
2018-07-02T11:48:19.197Z,31.75
2018-07-02T11:50:52.973Z,31.67
2018-07-02T11:53:27.459Z,31.94
2018-07-02T11:56:01.418Z,31.83
2018-07-02T11:58:35.942Z,31.96
2018-07-02T12:01:10.253Z,31.94
2018-07-02T12:03:44.293Z,32.33
2018-07-02T12:06:17.701Z,32.38
2018-07-02T12:08:55.700Z,32.16
2018-07-02T12:11:30.806Z,32.16
2018-07-02T12:14:03.697Z,32.58
2018-07-02T12:16:40.222Z,32.29
2018-07-02T12:19:12.644Z,32.33
2018-07-02T12:21:46.115Z,32.27
2018-07-02T12:24:18.887Z,32.55
2018-07-02T12:26:51.541Z,32.41
2018-07-02T12:29:24.002Z,32.14
2018-07-02T12:31:58.432Z,31.83
2018-07-02T12:34:31.493Z,31.86
2018-07-02T12:37:05.846Z,32.03
2018-07-02T12:39:40.070Z,32.01
2018-07-02T12:42:15.780Z,31.95
2018-07-02T12:44:58.599Z,31.99
2018-07-02T12:47:33.163Z,32.14
2018-07-02T12:50:09.846Z,32.55
2018-07-02T12:52:45.778Z,32.99
2018-07-02T12:55:20.761Z,33.41
2018-07-02T12:57:54.746Z,33.82
2018-07-02T13:00:27.970Z,34.08
2018-07-02T13:03:08.769Z,34.17
2018-07-02T13:05:43.718Z,34.11
2018-07-02T13:08:18.068Z,33.95
2018-07-02T13:10:51.961Z,33.87
2018-07-02T13:13:25.894Z,34.05
2018-07-02T13:16:08.965Z,34.66
2018-07-02T13:18:42.948Z,34.57
2018-07-02T13:21:16.479Z,34.26
2018-07-02T13:23:51.244Z,34.05
2018-07-02T13:26:28.506Z,33.92
2018-07-02T13:29:03.463Z,34.00
2018-07-02T13:31:36.623Z,34.56
2018-07-02T13:34:11.657Z,34.55
2018-07-02T13:36:47.840Z,34.10
2018-07-02T13:39:25.082Z,33.88
2018-07-02T13:41:58.229Z,33.55
2018-07-02T13:44:52.980Z,33.06
2018-07-02T13:47:27.129Z,33.10
2018-07-02T13:50:03.365Z,33.06
2018-07-02T13:52:36.812Z,32.81
2018-07-02T13:55:10.438Z,32.39
2018-07-02T13:57:43.464Z,31.88
2018-07-02T14:00:17.846Z,31.78
2018-07-02T14:02:52.162Z,31.82
2018-07-02T14:05:27.392Z,31.61
2018-07-02T14:08:01.472Z,31.41
2018-07-02T14:10:35.945Z,31.35
2018-07-02T14:13:10.912Z,31.73
2018-07-02T14:15:45.933Z,32.09
2018-07-02T14:18:20.189Z,32.27
2018-07-02T14:20:54.911Z,32.32
2018-07-02T14:23:29.329Z,31.84
2018-07-02T14:26:03.713Z,31.35
2018-07-02T14:28:36.804Z,31.37
2018-07-02T14:31:25.728Z,31.29
2018-07-02T14:34:05.110Z,31.52
2018-07-02T14:36:39.253Z,31.60
2018-07-02T14:39:14.389Z,31.69
2018-07-02T14:41:49.590Z,31.42
2018-07-02T14:44:23.321Z,31.16
2018-07-02T14:46:58.639Z,31.06
2018-07-02T14:49:32.829Z,31.26
2018-07-02T14:52:08.755Z,31.17
2018-07-02T14:54:45.222Z,31.31
2018-07-02T14:57:24.865Z,31.54
2018-07-02T15:00:07.385Z,31.57
2018-07-02T15:02:41.256Z,31.34
2018-07-02T15:05:15.390Z,31.27
2018-07-02T15:07:49.836Z,31.07
2018-07-02T15:10:22.250Z,30.94
2018-07-02T15:12:55.383Z,30.65
2018-07-02T15:15:30.087Z,30.69
2018-07-02T15:18:09.235Z,30.82
2018-07-02T15:20:42.515Z,30.87
2018-07-02T15:23:16.093Z,30.68
2018-07-02T15:25:50.555Z,30.71
2018-07-02T15:28:25.013Z,30.59
2018-07-02T15:30:59.813Z,30.61
2018-07-02T15:33:34.128Z,30.56
2018-07-02T15:36:13.819Z,30.57
2018-07-02T15:38:49.648Z,30.71
2018-07-02T15:41:22.758Z,30.79
2018-07-02T15:43:57.029Z,30.92
2018-07-02T15:46:33.523Z,30.74
2018-07-02T15:49:09.858Z,30.52
2018-07-02T15:51:47.085Z,30.55
2018-07-02T15:54:22.918Z,30.52
2018-07-02T15:56:55.561Z,30.68
2018-07-02T15:59:35.214Z,30.65
2018-07-02T16:02:25.764Z,30.54
2018-07-02T16:04:59.204Z,30.43
2018-07-02T16:07:31.761Z,30.52
2018-07-02T16:10:19.035Z,30.78
2018-07-02T16:12:55.353Z,30.87
2018-07-02T16:15:28.032Z,30.94
2018-07-02T16:18:01.355Z,31.31
2018-07-02T16:20:35.663Z,31.30
2018-07-02T16:23:10.111Z,31.23
2018-07-02T16:25:44.407Z,30.99
2018-07-02T16:28:24.678Z,30.82
2018-07-02T16:30:59.384Z,30.67
2018-07-02T16:33:33.365Z,30.50
2018-07-02T16:36:08.477Z,30.38
2018-07-02T16:38:41.540Z,30.35
2018-07-02T16:41:17.980Z,30.51
2018-07-02T16:43:53.996Z,30.64
2018-07-02T16:46:34.971Z,30.63
2018-07-02T16:49:17.539Z,30.62
2018-07-02T16:51:52.909Z,30.61
2018-07-02T16:54:28.813Z,30.56
2018-07-02T16:57:04.772Z,30.51
2018-07-02T16:59:42.531Z,30.33
2018-07-02T17:02:25.288Z,30.27
2018-07-02T17:05:03.700Z,30.19
2018-07-02T17:07:39.416Z,29.94
2018-07-02T17:10:19.523Z,29.74
2018-07-02T17:13:43.378Z,29.75
2018-07-02T17:16:47.361Z,29.74
2018-07-02T17:20:09.427Z,29.64
2018-07-02T17:23:14.645Z,29.43
2018-07-02T17:26:14.353Z,29.27
2018-07-02T17:29:10.765Z,29.26
2018-07-02T17:32:47.337Z,29.14
2018-07-02T17:35:31.527Z,29.06
2018-07-02T17:38:11.143Z,28.93
2018-07-02T17:40:45.179Z,28.73
2018-07-02T17:43:20.339Z,28.56
2018-07-02T17:46:06.490Z,28.49
2018-07-02T17:48:44.469Z,28.48
2018-07-02T17:51:21.700Z,28.40
2018-07-02T17:54:12.640Z,28.39
2018-07-02T17:56:52.394Z,28.08
2018-07-02T17:59:47.819Z,27.91
2018-07-02T18:03:02.845Z,27.80
2018-07-02T18:06:24.015Z,27.76
2018-07-02T18:09:37.110Z,27.58
2018-07-02T18:13:19.177Z,27.31
2018-07-02T18:16:28.785Z,26.99
2018-07-02T18:20:04.727Z,26.80
2018-07-02T18:23:10.617Z,26.64
2018-07-02T18:25:54.882Z,26.38
2018-07-02T18:28:45.670Z,26.18
2018-07-02T18:31:21.533Z,26.00
2018-07-02T18:33:59.852Z,25.79
2018-07-02T18:36:35.804Z,25.66
2018-07-02T18:39:14.895Z,25.57
2018-07-02T18:41:54.377Z,25.46
2018-07-02T18:44:39.403Z,25.36
2018-07-02T18:47:21.281Z,25.27
2018-07-02T18:56:35.848Z,24.91
2018-07-02T18:59:11.791Z,24.80
2018-07-02T19:01:47.575Z,24.71
2018-07-02T19:04:24.689Z,24.64
2018-07-02T19:07:06.500Z,24.66
2018-07-02T19:09:45.965Z,24.68
2018-07-02T19:12:23.384Z,24.57
2018-07-02T19:14:57.468Z,24.49
2018-07-02T19:17:33.704Z,24.41
2018-07-02T19:20:23.867Z,24.29
2018-07-02T19:23:02.225Z,24.20
2018-07-02T19:25:41.704Z,24.09
2018-07-02T19:28:18.131Z,23.91
2018-07-02T19:30:59.224Z,23.87
2018-07-02T19:33:36.219Z,23.75
2018-07-02T19:36:17.553Z,23.70
2018-07-02T19:39:01.007Z,23.59
2018-07-02T19:41:41.258Z,23.49
2018-07-02T19:44:18.072Z,23.34
2018-07-02T19:46:53.669Z,23.25
2018-07-02T19:49:33.336Z,23.11
2018-07-02T19:52:15.028Z,23.00
2018-07-02T19:54:50.846Z,22.86
2018-07-02T19:57:30.256Z,22.77
2018-07-02T20:00:08.990Z,22.71
2018-07-02T20:02:50.423Z,22.62
2018-07-02T20:05:23.811Z,22.47
2018-07-02T20:07:58.201Z,22.44
2018-07-02T20:10:42.700Z,22.39
2018-07-02T20:13:19.689Z,22.26
2018-07-02T20:15:59.834Z,22.13
2018-07-02T20:18:36.075Z,22.10
2018-07-02T20:21:20.407Z,22.04
2018-07-02T20:23:58.580Z,21.93
2018-07-02T20:26:33.847Z,21.78
2018-07-02T20:29:08.211Z,21.75
2018-07-02T20:31:45.432Z,21.67
2018-07-02T20:34:20.655Z,21.63
2018-07-02T20:37:00.682Z,21.66
2018-07-02T20:39:37.210Z,21.59
2018-07-02T20:42:11.765Z,21.61
2018-07-02T20:44:50.426Z,21.47
2018-07-02T20:47:27.440Z,21.37
2018-07-02T20:50:03.891Z,21.38
2018-07-02T20:52:42.299Z,21.28
2018-07-02T20:55:21.841Z,21.17
2018-07-02T20:58:11.696Z,21.13
2018-07-02T21:00:53.239Z,21.11
2018-07-02T21:03:33.804Z,21.03
2018-07-02T21:06:16.915Z,20.94
2018-07-02T21:08:55.786Z,20.88
2018-07-02T21:11:37.395Z,20.86
2018-07-02T21:14:14.952Z,20.81
2018-07-02T21:16:54.300Z,20.88
2018-07-02T21:19:34.486Z,20.80
2018-07-02T21:22:09.017Z,20.71
2018-07-02T21:24:54.743Z,20.66
2018-07-02T21:27:34.164Z,20.59
2018-07-02T21:30:09.654Z,20.54
2018-07-02T21:32:50.285Z,20.56
2018-07-02T21:35:23.657Z,20.52
2018-07-02T21:38:03.113Z,20.50
2018-07-02T21:40:40.986Z,20.43
2018-07-02T21:43:15.089Z,20.36
2018-07-02T21:45:57.634Z,20.35
2018-07-02T21:48:40.994Z,20.25
2018-07-02T21:51:15.490Z,20.25
2018-07-02T21:53:54.428Z,20.13
2018-07-02T21:56:31.607Z,20.02
2018-07-02T21:59:05.197Z,19.97
2018-07-02T22:01:41.770Z,19.84
2018-07-02T22:04:20.767Z,19.71
2018-07-02T22:06:55.775Z,19.62
2018-07-02T22:09:30.649Z,19.70
2018-07-02T22:12:05.384Z,19.60
2018-07-02T22:14:39.465Z,19.58
2018-07-02T22:17:14.185Z,19.54
2018-07-02T22:19:48.597Z,19.51
2018-07-02T22:22:24.858Z,19.39
2018-07-02T22:25:01.442Z,19.23
2018-07-02T22:27:36.385Z,19.14
2018-07-02T22:30:16.187Z,19.15
2018-07-02T22:32:51.151Z,19.08
2018-07-02T22:35:27.988Z,18.92
2018-07-02T22:38:14.317Z,18.93
2018-07-02T22:40:53.884Z,18.98
2018-07-02T22:43:32.669Z,18.94
2018-07-02T22:46:12.580Z,18.79
2018-07-02T22:48:54.784Z,18.64
2018-07-02T22:51:42.905Z,18.48
2018-07-02T22:54:16.518Z,18.36
2018-07-02T22:56:52.239Z,18.31
2018-07-02T22:59:30.549Z,18.15
2018-07-02T23:02:03.987Z,18.05
2018-07-02T23:04:41.079Z,18.06
2018-07-02T23:07:15.741Z,18.03
2018-07-02T23:09:49.649Z,17.97
2018-07-02T23:12:24.309Z,17.96
2018-07-02T23:14:59.457Z,17.92
2018-07-02T23:17:47.555Z,17.84
2018-07-02T23:20:30.496Z,17.81
2018-07-02T23:23:05.524Z,17.78
2018-07-02T23:25:42.447Z,17.79
2018-07-02T23:28:18.508Z,17.71
2018-07-02T23:30:52.217Z,17.61
2018-07-02T23:33:27.143Z,17.63
2018-07-02T23:36:03.940Z,17.61
2018-07-02T23:38:37.193Z,17.67
2018-07-02T23:41:16.553Z,17.63
2018-07-02T23:43:53.114Z,17.58
2018-07-02T23:46:28.801Z,17.58
2018-07-02T23:49:02.773Z,17.54
2018-07-02T23:51:36.913Z,17.55
2018-07-02T23:54:10.529Z,17.48
2018-07-02T23:56:43.351Z,17.41
2018-07-02T23:59:19.189Z,17.37
